Time;durP1;ratioP1;P1;durP2;ratioP2;P2;SDS_P1;SDS_P2;PMS_P1;PMS_P2;Temp;Humidity;BMP_temperature;BMP_pressure;BME280_temperature;BME280_humidity;BME280_pressure;Samples;Min_cycle;Max_cycle;Signal;HPM_P1;HPM_P2
2021/01/09 00:01:56;;;;;;;18.57;12.13;;;2.00;73.60;;;;;;5051093;28;20029;-67
2021/01/09 00:04:21;;;;;;;19.97;12.30;;;2.00;73.40;;;;;;5051519;28;20076;-67
2021/01/09 00:06:48;;;;;;;17.97;12.17;;;2.00;74.00;;;;;;5051409;28;20025;-67
2021/01/09 00:09:14;;;;;;;20.90;12.77;;;2.00;73.60;;;;;;5051197;28;20124;-67
2021/01/09 00:11:40;;;;;;;21.60;10.73;;;2.00;73.50;;;;;;5051922;28;20100;-66
2021/01/09 00:14:06;;;;;;;18.37;10.70;;;2.00;73.20;;;;;;5051323;28;20031;-67
2021/01/09 00:16:31;;;;;;;14.53;10.33;;;2.00;73.00;;;;;;5051641;28;20017;-67
2021/01/09 00:18:57;;;;;;;16.77;9.60;;;2.00;73.90;;;;;;5051292;28;20094;-67
2021/01/09 00:21:23;;;;;;;14.30;9.00;;;2.00;73.90;;;;;;5050912;28;20048;-67
2021/01/09 00:23:48;;;;;;;13.83;8.67;;;2.10;73.40;;;;;;5052233;28;20036;-68
2021/01/09 00:26:14;;;;;;;15.40;9.30;;;2.10;73.20;;;;;;5052399;28;20051;-67
2021/01/09 00:28:40;;;;;;;16.17;9.77;;;2.20;73.60;;;;;;5050871;28;20035;-67
2021/01/09 00:31:06;;;;;;;14.03;8.90;;;2.10;73.70;;;;;;5051411;28;20037;-67
2021/01/09 00:33:33;;;;;;;16.43;9.57;;;2.10;73.70;;;;;;5051150;28;20100;-67
2021/01/09 00:35:59;;;;;;;15.50;9.47;;;2.20;73.80;;;;;;5051577;28;20021;-67
2021/01/09 00:38:25;;;;;;;13.00;8.67;;;2.20;73.30;;;;;;5056083;28;20461;-67
2021/01/09 00:40:51;;;;;;;15.07;9.37;;;2.20;74.00;;;;;;5055759;28;20036;-66
2021/01/09 00:43:17;;;;;;;14.03;9.37;;;2.20;73.60;;;;;;5055023;28;20021;-67
2021/01/09 00:45:42;;;;;;;15.53;10.20;;;2.20;74.50;;;;;;5055822;28;20028;-66
2021/01/09 00:48:08;;;;;;;17.47;11.87;;;2.10;74.00;;;;;;5056310;28;20462;-66
2021/01/09 00:50:34;;;;;;;16.83;11.87;;;2.20;73.40;;;;;;5054792;28;20029;-67
2021/01/09 00:52:59;;;;;;;20.00;11.77;;;2.10;73.40;;;;;;5054696;28;20022;-67
2021/01/09 00:55:25;;;;;;;18.40;11.67;;;2.10;73.90;;;;;;5054673;28;20032;-67
2021/01/09 00:57:51;;;;;;;16.27;10.33;;;2.10;73.90;;;;;;5055534;28;20029;-67
2021/01/09 01:00:17;;;;;;;17.17;10.83;;;2.00;73.10;;;;;;5055159;28;20031;-66
2021/01/09 01:02:42;;;;;;;16.37;10.77;;;2.00;74.00;;;;;;5055340;28;20056;-66
2021/01/09 01:05:09;;;;;;;16.47;10.30;;;2.00;74.00;;;;;;5056166;28;20033;-67
2021/01/09 01:07:36;;;;;;;18.07;10.10;;;1.90;74.10;;;;;;5054459;28;20474;-67
2021/01/09 01:10:06;;;;;;;17.27;10.57;;;1.90;75.70;;;;;;5054382;28;20036;-67
2021/01/09 01:12:32;;;;;;;14.63;9.80;;;1.90;74.90;;;;;;5055131;28;20037;-67
2021/01/09 01:14:58;;;;;;;16.73;10.60;;;1.90;74.20;;;;;;5054722;28;20025;-67
2021/01/09 01:17:23;;;;;;;15.00;9.47;;;1.80;74.60;;;;;;5054132;28;20383;-67
2021/01/09 01:19:49;;;;;;;17.93;9.97;;;1.80;75.00;;;;;;5054721;28;20454;-66
2021/01/09 01:22:15;;;;;;;15.60;9.20;;;1.80;75.50;;;;;;5056138;28;20508;-67
2021/01/09 01:24:40;;;;;;;14.33;9.03;;;1.70;74.70;;;;;;5055217;28;20454;-66
2021/01/09 01:27:06;;;;;;;15.03;9.70;;;1.70;75.90;;;;;;5054945;28;20029;-67
2021/01/09 01:29:32;;;;;;;15.47;9.47;;;1.70;75.50;;;;;;5053953;28;20044;-67
2021/01/09 01:31:58;;;;;;;15.33;8.53;;;1.70;74.50;;;;;;5055267;28;20386;-66
2021/01/09 01:34:24;;;;;;;14.27;8.27;;;1.70;74.90;;;;;;5054383;28;20029;-66
2021/01/09 01:36:50;;;;;;;14.87;8.97;;;1.60;74.40;;;;;;5054284;28;20481;-67
2021/01/09 01:39:15;;;;;;;12.97;8.70;;;1.60;75.20;;;;;;5054025;28;20017;-67
2021/01/09 01:41:41;;;;;;;12.20;8.10;;;1.60;75.60;;;;;;5054616;28;20096;-67
2021/01/09 01:44:08;;;;;;;13.63;8.10;;;1.60;75.30;;;;;;5054350;28;20021;-66
2021/01/09 01:46:34;;;;;;;11.60;7.73;;;1.60;74.50;;;;;;5054698;28;20025;-66
2021/01/09 01:49:00;;;;;;;12.53;7.70;;;1.60;75.70;;;;;;5053254;28;20036;-66
2021/01/09 01:51:25;;;;;;;13.07;8.53;;;1.60;75.50;;;;;;5053785;28;20490;-67
2021/01/09 01:53:54;;;;;;;10.13;7.40;;;1.60;75.30;;;;;;5054696;28;20083;-66
2021/01/09 01:56:21;;;;;;;13.20;8.57;;;1.60;75.30;;;;;;5053880;28;20104;-66
2021/01/09 01:58:47;;;;;;;12.20;7.63;;;1.50;75.40;;;;;;5052453;28;20075;-67
2021/01/09 02:01:16;;;;;;;13.10;8.13;;;1.60;75.60;;;;;;5051281;28;20112;-66
2021/01/09 02:03:41;;;;;;;11.23;7.80;;;1.60;74.60;;;;;;5050383;28;20430;-66
2021/01/09 02:06:29;;;;;;;12.37;7.90;;;1.60;74.40;;;;;;5053713;28;20056;-66
2021/01/09 02:09:30;;;;;;;13.60;7.70;;;1.60;74.80;;;;;;5053857;28;20029;-67
2021/01/09 02:12:08;;;;;;;11.70;7.60;;;1.60;75.10;;;;;;5052726;28;20154;-67
2021/01/09 02:14:44;;;;;;;12.53;7.40;;;1.60;74.90;;;;;;5053418;28;20386;-67
2021/01/09 02:17:11;;;;;;;13.43;7.27;;;1.60;75.60;;;;;;5053927;28;20056;-66
2021/01/09 02:19:42;;;;;;;10.93;7.40;;;1.60;75.30;;;;;;5053389;28;20493;-67
2021/01/09 02:22:15;;;;;;;11.13;6.77;;;1.60;74.80;;;;;;5053321;28;20028;-67
2021/01/09 02:24:45;;;;;;;12.27;7.80;;;1.60;74.50;;;;;;5054154;28;20441;-67
2021/01/09 02:27:12;;;;;;;11.17;7.50;;;1.70;74.20;;;;;;5054361;28;20378;-67
2021/01/09 02:29:57;;;;;;;12.30;8.03;;;1.70;73.90;;;;;;5053093;28;20155;-67
2021/01/09 02:32:38;;;;;;;12.10;7.53;;;1.70;74.20;;;;;;5054177;28;20466;-67
2021/01/09 02:35:07;;;;;;;14.27;8.67;;;1.60;74.50;;;;;;5054555;28;20040;-67
2021/01/09 02:37:33;;;;;;;12.33;7.60;;;1.60;74.60;;;;;;5054576;28;20040;-67
2021/01/09 02:39:59;;;;;;;10.67;7.10;;;1.70;74.40;;;;;;5054748;28;20489;-66
2021/01/09 02:42:25;;;;;;;13.03;8.13;;;1.60;73.70;;;;;;5054517;28;20488;-67
2021/01/09 02:44:52;;;;;;;11.30;7.57;;;1.60;74.00;;;;;;5054330;28;20033;-66
2021/01/09 02:47:18;;;;;;;11.73;7.73;;;1.50;74.00;;;;;;5054434;28;20382;-66
2021/01/09 02:49:44;;;;;;;10.37;7.40;;;1.50;74.20;;;;;;5054162;28;20037;-66
2021/01/09 02:52:09;;;;;;;11.60;7.77;;;1.40;75.20;;;;;;5054122;28;20032;-66
2021/01/09 02:54:36;;;;;;;9.63;6.10;;;1.40;75.40;;;;;;5054571;28;20029;-66
2021/01/09 02:57:03;;;;;;;8.90;6.27;;;1.30;75.30;;;;;;5054320;28;20455;-66
2021/01/09 02:59:29;;;;;;;9.60;6.33;;;1.40;75.00;;;;;;5053865;28;20033;-67
2021/01/09 03:01:55;;;;;;;9.30;6.43;;;1.40;75.10;;;;;;5053404;28;20524;-66
2021/01/09 03:04:20;;;;;;;12.17;7.20;;;1.40;74.00;;;;;;5054545;28;20051;-66
2021/01/09 03:06:46;;;;;;;9.30;6.57;;;1.30;75.90;;;;;;5054214;28;20083;-67
2021/01/09 03:09:12;;;;;;;9.87;6.70;;;1.30;75.40;;;;;;5054264;28;20037;-66
2021/01/09 03:11:38;;;;;;;12.53;6.70;;;1.30;75.10;;;;;;5054373;28;20100;-67
2021/01/09 03:14:04;;;;;;;12.70;6.53;;;1.20;75.40;;;;;;5054079;28;20059;-66
2021/01/09 03:16:30;;;;;;;9.80;6.93;;;1.20;75.20;;;;;;5054302;28;20017;-67
2021/01/09 03:18:56;;;;;;;13.57;7.50;;;1.30;74.70;;;;;;5053884;28;20513;-67
2021/01/09 03:21:21;;;;;;;11.77;7.47;;;1.20;74.70;;;;;;5053924;28;20417;-66
2021/01/09 03:23:47;;;;;;;11.93;7.40;;;1.20;75.70;;;;;;5054093;28;20592;-66
2021/01/09 03:26:13;;;;;;;12.30;7.77;;;1.20;75.80;;;;;;5053985;28;20083;-67
2021/01/09 03:28:39;;;;;;;11.20;6.93;;;1.10;75.40;;;;;;5053442;28;20123;-67
2021/01/09 03:31:05;;;;;;;11.50;7.53;;;1.10;75.60;;;;;;5053749;28;20025;-66
2021/01/09 03:33:30;;;;;;;10.97;6.83;;;1.20;76.00;;;;;;5053629;28;20508;-66
2021/01/09 03:35:56;;;;;;;14.10;7.20;;;1.10;75.60;;;;;;5053752;28;20017;-67
2021/01/09 03:38:22;;;;;;;12.80;7.43;;;1.10;76.20;;;;;;5053876;28;20103;-67
2021/01/09 03:40:48;;;;;;;13.17;8.13;;;1.10;76.80;;;;;;5053750;28;20033;-66
2021/01/09 03:43:14;;;;;;;11.23;7.40;;;1.10;75.50;;;;;;5053391;28;20028;-66
2021/01/09 03:45:39;;;;;;;11.57;7.77;;;1.10;75.90;;;;;;5053552;28;20032;-66
2021/01/09 03:48:06;;;;;;;12.20;7.60;;;1.10;76.20;;;;;;5053430;28;20036;-67
2021/01/09 03:50:31;;;;;;;10.03;6.80;;;1.10;76.30;;;;;;5053323;28;20059;-67
2021/01/09 03:52:57;;;;;;;12.57;7.70;;;1.10;76.70;;;;;;5053836;28;20025;-67
2021/01/09 03:55:23;;;;;;;11.43;7.40;;;1.10;76.20;;;;;;5053471;28;20029;-66
2021/01/09 03:57:48;;;;;;;10.37;6.83;;;1.10;75.90;;;;;;5053052;28;20027;-67
2021/01/09 04:00:15;;;;;;;11.43;7.47;;;1.10;76.00;;;;;;5053306;28;20025;-67
2021/01/09 04:02:41;;;;;;;11.77;7.77;;;1.10;76.00;;;;;;5053436;28;20354;-67
2021/01/09 04:05:08;;;;;;;10.73;7.20;;;1.10;75.40;;;;;;5053394;28;20036;-67
2021/01/09 04:07:34;;;;;;;12.53;7.60;;;1.10;74.70;;;;;;5053234;28;20044;-67
2021/01/09 04:10:00;;;;;;;10.63;7.10;;;1.10;76.00;;;;;;5053167;28;20478;-66
2021/01/09 04:12:25;;;;;;;11.97;7.47;;;1.10;75.50;;;;;;5052532;28;20032;-66
2021/01/09 04:14:51;;;;;;;11.83;7.20;;;1.10;75.10;;;;;;5053276;28;20029;-66
2021/01/09 04:17:17;;;;;;;10.17;6.93;;;1.10;74.70;;;;;;5052763;28;20025;-66
2021/01/09 04:19:42;;;;;;;11.50;7.17;;;1.20;74.70;;;;;;5053099;28;20351;-66
2021/01/09 04:22:08;;;;;;;9.53;6.67;;;1.20;74.60;;;;;;5053258;28;20028;-66
2021/01/09 04:24:34;;;;;;;9.63;7.20;;;1.20;75.20;;;;;;5053043;28;20363;-67
2021/01/09 04:27:02;;;;;;;10.50;7.17;;;1.20;75.50;;;;;;5053016;28;20041;-66
2021/01/09 04:29:28;;;;;;;11.33;7.23;;;1.20;75.00;;;;;;5052689;28;20045;-66
2021/01/09 04:31:55;;;;;;;9.63;6.23;;;1.30;74.90;;;;;;5053010;28;20083;-67
2021/01/09 04:34:22;;;;;;;9.50;6.10;;;1.20;74.70;;;;;;5053012;28;20035;-67
2021/01/09 04:36:49;;;;;;;10.13;6.47;;;1.30;74.30;;;;;;5052916;28;20028;-67
2021/01/09 04:39:15;;;;;;;11.37;7.03;;;1.30;74.60;;;;;;5053088;28;20040;-66
2021/01/09 04:41:42;;;;;;;9.10;6.33;;;1.30;74.70;;;;;;5052518;28;20064;-66
2021/01/09 04:44:09;;;;;;;9.30;6.37;;;1.30;74.30;;;;;;5052627;28;20067;-66
2021/01/09 04:46:52;;;;;;;9.83;6.63;;;1.40;74.00;;;;;;5052905;28;20025;-66
2021/01/09 04:49:20;;;;;;;9.17;6.17;;;1.40;73.50;;;;;;5052735;28;20037;-66
2021/01/09 04:51:47;;;;;;;12.20;6.90;;;1.40;73.20;;;;;;5052789;28;20029;-67
2021/01/09 04:54:19;;;;;;;11.40;7.33;;;1.50;72.60;;;;;;5052788;28;20025;-67
2021/01/09 04:56:46;;;;;;;9.90;6.83;;;1.50;71.70;;;;;;5053055;28;20128;-67
2021/01/09 04:59:16;;;;;;;12.10;7.50;;;1.50;71.80;;;;;;5052637;28;20500;-67
2021/01/09 05:01:43;;;;;;;9.50;6.67;;;1.60;71.00;;;;;;5052682;28;20044;-66
2021/01/09 05:04:10;;;;;;;10.13;6.70;;;1.60;71.00;;;;;;5052836;28;20029;-66
2021/01/09 05:06:40;;;;;;;9.30;6.20;;;1.60;69.90;;;;;;5052641;28;20018;-67
2021/01/09 05:09:07;;;;;;;9.67;6.67;;;1.70;70.40;;;;;;5052354;28;20123;-67
2021/01/09 05:11:34;;;;;;;10.07;6.57;;;1.80;69.80;;;;;;5052630;28;20033;-66
2021/01/09 05:14:01;;;;;;;8.77;6.00;;;1.80;69.50;;;;;;5052747;28;20031;-67
2021/01/09 05:16:27;;;;;;;10.00;6.63;;;1.90;69.00;;;;;;5052741;28;20071;-66
2021/01/09 05:18:53;;;;;;;12.17;7.60;;;1.90;69.40;;;;;;5052521;28;20488;-67
2021/01/09 05:21:20;;;;;;;10.30;7.07;;;1.90;70.40;;;;;;5052555;28;20095;-67
2021/01/09 05:24:05;;;;;;;10.10;7.17;;;1.80;70.50;;;;;;5053232;28;20028;-66
2021/01/09 05:26:31;;;;;;;11.93;7.13;;;1.90;70.90;;;;;;5056045;28;20028;-66
2021/01/09 05:29:02;;;;;;;10.87;7.33;;;1.90;70.90;;;;;;5056058;28;20033;-66
2021/01/09 05:31:31;;;;;;;12.17;7.03;;;1.80;71.10;;;;;;5056085;28;20028;-66
2021/01/09 05:33:57;;;;;;;12.30;7.63;;;1.80;71.70;;;;;;5055920;28;20055;-67
2021/01/09 05:36:24;;;;;;;11.20;7.50;;;1.70;72.40;;;;;;5056006;28;20032;-66
2021/01/09 05:38:51;;;;;;;12.73;8.07;;;1.60;72.50;;;;;;5055852;28;20079;-66
2021/01/09 05:41:22;;;;;;;11.63;7.67;;;1.60;72.20;;;;;;5055799;28;20031;-66
2021/01/09 05:43:59;;;;;;;8.87;6.70;;;1.60;73.30;;;;;;5055957;28;20485;-66
2021/01/09 05:46:25;;;;;;;12.53;7.53;;;1.60;73.20;;;;;;5055941;28;20029;-66
2021/01/09 05:48:52;;;;;;;12.57;7.50;;;1.50;72.90;;;;;;5055706;28;20029;-67
2021/01/09 05:51:18;;;;;;;11.23;7.33;;;1.50;72.80;;;;;;5054365;28;20025;-66
2021/01/09 05:53:45;;;;;;;10.47;7.33;;;1.40;73.90;;;;;;5055691;28;20029;-66
2021/01/09 05:56:14;;;;;;;10.97;6.67;;;1.40;74.00;;;;;;5055602;28;20021;-67
2021/01/09 05:58:40;;;;;;;11.73;7.23;;;1.40;73.50;;;;;;5055464;28;20064;-67
2021/01/09 06:01:07;;;;;;;11.63;7.20;;;1.40;73.80;;;;;;5055682;28;20048;-66
2021/01/09 06:03:41;;;;;;;14.27;7.57;;;1.30;73.90;;;;;;5055773;28;20025;-66
2021/01/09 06:06:21;;;;;;;14.73;7.00;;;1.30;73.50;;;;;;5055617;28;20032;-67
2021/01/09 06:08:53;;;;;;;9.93;6.67;;;1.20;72.50;;;;;;5055264;28;20037;-67
2021/01/09 06:11:44;;;;;;;10.65;6.47;;;1.20;73.70;;;;;;5054921;28;20029;-67
2021/01/09 06:14:13;;;;;;;8.57;5.90;;;1.20;74.70;;;;;;5054826;28;20040;-66
2021/01/09 06:16:40;;;;;;;11.10;7.13;;;1.10;74.60;;;;;;5055368;28;20021;-66
2021/01/09 06:19:06;;;;;;;12.80;6.70;;;1.10;74.10;;;;;;5055197;28;20076;-66
2021/01/09 06:21:33;;;;;;;10.13;5.87;;;1.10;74.30;;;;;;5055275;28;20096;-66
2021/01/09 06:24:00;;;;;;;9.77;6.70;;;1.10;75.00;;;;;;5054977;28;20029;-66
2021/01/09 06:26:28;;;;;;;9.93;6.70;;;1.10;74.40;;;;;;5054817;28;20112;-67
2021/01/09 06:28:57;;;;;;;10.00;7.00;;;1.10;74.20;;;;;;5055135;28;20098;-66
2021/01/09 06:31:25;;;;;;;10.67;6.60;;;1.10;74.20;;;;;;5055110;28;20024;-66
2021/01/09 06:33:53;;;;;;;9.13;6.17;;;1.00;74.20;;;;;;5055202;28;20025;-66
2021/01/09 06:36:21;;;;;;;10.53;6.83;;;1.00;75.40;;;;;;5054334;28;20064;-66
2021/01/09 06:38:49;;;;;;;11.47;6.37;;;1.00;75.70;;;;;;5054910;28;20493;-66
2021/01/09 06:41:17;;;;;;;11.83;6.97;;;1.00;75.00;;;;;;5054898;28;20033;-66
2021/01/09 06:43:45;;;;;;;10.73;6.40;;;0.90;75.10;;;;;;5055026;28;20025;-66
2021/01/09 06:46:12;;;;;;;9.00;5.90;;;0.90;75.60;;;;;;5054843;28;20378;-67
2021/01/09 06:48:44;;;;;;;9.10;5.83;;;0.90;74.80;;;;;;5054689;28;20037;-67
2021/01/09 06:51:34;;;;;;;11.17;6.33;;;0.90;74.60;;;;;;5054901;28;20099;-66
2021/01/09 06:54:15;;;;;;;12.17;6.47;;;0.80;75.40;;;;;;5054698;28;20025;-66
2021/01/09 06:57:07;;;;;;;8.80;6.10;;;0.80;76.00;;;;;;5054462;28;20554;-66
2021/01/09 06:59:47;;;;;;;11.03;6.80;;;0.80;75.90;;;;;;5054249;28;20100;-66
2021/01/09 07:02:25;;;;;;;11.57;6.60;;;0.80;76.00;;;;;;5051752;28;20452;-66
2021/01/09 07:04:52;;;;;;;13.33;6.60;;;0.80;75.60;;;;;;5054748;28;20028;-67
2021/01/09 07:07:26;;;;;;;10.87;6.77;;;0.80;76.10;;;;;;5054081;28;20032;-67
2021/01/09 07:09:57;;;;;;;10.37;6.87;;;0.80;76.00;;;;;;5053923;28;20045;-66
2021/01/09 07:12:27;;;;;;;10.57;7.40;;;0.80;76.70;;;;;;5054224;28;20025;-66
2021/01/09 07:14:57;;;;;;;15.90;11.77;;;0.80;76.60;;;;;;5054084;28;20504;-66
2021/01/09 07:17:26;;;;;;;16.97;12.77;;;0.80;76.70;;;;;;5053856;28;20394;-66
2021/01/09 07:19:53;;;;;;;15.53;11.27;;;0.80;76.40;;;;;;5053897;28;20021;-66
2021/01/09 07:22:20;;;;;;;17.40;12.13;;;0.80;76.90;;;;;;5053733;28;20130;-66
2021/01/09 07:24:48;;;;;;;15.97;12.20;;;0.80;76.70;;;;;;5054029;28;20017;-66
2021/01/09 07:27:21;;;;;;;19.33;11.97;;;0.80;76.70;;;;;;5053968;28;20493;-66
2021/01/09 07:29:54;;;;;;;16.67;8.77;;;0.90;77.00;;;;;;5053937;28;20540;-66
2021/01/09 07:32:36;;;;;;;11.43;7.73;;;0.90;76.80;;;;;;5053458;28;20075;-66
2021/01/09 07:35:07;;;;;;;9.70;6.90;;;0.90;76.50;;;;;;5053850;28;20363;-66
2021/01/09 07:37:39;;;;;;;13.10;7.93;;;0.90;76.30;;;;;;5053561;28;20486;-66
2021/01/09 07:40:12;;;;;;;12.30;7.47;;;1.00;76.30;;;;;;5052396;28;20029;-66
2021/01/09 07:42:38;;;;;;;11.10;7.67;;;1.00;76.30;;;;;;5053726;28;20428;-66
2021/01/09 07:45:09;;;;;;;13.83;8.17;;;1.00;76.30;;;;;;5053536;28;20033;-66
2021/01/09 07:47:42;;;;;;;11.47;7.30;;;1.00;76.50;;;;;;5052937;28;20028;-65
2021/01/09 07:50:09;;;;;;;13.40;7.60;;;1.00;76.40;;;;;;5053518;28;20033;-66
2021/01/09 07:52:35;;;;;;;11.93;7.90;;;1.10;76.60;;;;;;5053201;28;20519;-66
2021/01/09 07:55:02;;;;;;;11.30;7.70;;;1.10;76.60;;;;;;5053366;28;20025;-66
2021/01/09 07:57:29;;;;;;;13.63;8.10;;;1.10;76.80;;;;;;5050219;28;20073;-67
2021/01/09 07:59:55;;;;;;;12.90;8.50;;;1.20;77.20;;;;;;5050360;28;20067;-67
2021/01/09 08:02:28;;;;;;;11.47;7.87;;;1.20;77.10;;;;;;5051155;28;20029;-67
2021/01/09 08:05:10;;;;;;;12.30;7.57;;;1.30;76.70;;;;;;5052699;28;20036;-65
2021/01/09 08:07:38;;;;;;;16.02;7.57;;;1.40;76.80;;;;;;5052802;28;20067;-67
2021/01/09 08:10:19;;;;;;;11.77;7.40;;;1.40;76.90;;;;;;5052744;28;20032;-65
2021/01/09 08:12:46;;;;;;;10.50;6.93;;;1.50;76.80;;;;;;5051884;28;20009;-69
2021/01/09 08:15:13;;;;;;;13.27;7.57;;;1.60;76.80;;;;;;5053062;28;20075;-67
2021/01/09 08:17:39;;;;;;;10.57;7.07;;;1.60;76.70;;;;;;5052849;28;20045;-67
2021/01/09 08:20:06;;;;;;;11.50;7.57;;;1.70;76.70;;;;;;5052796;28;20025;-67
2021/01/09 08:22:32;;;;;;;10.47;7.17;;;1.80;76.60;;;;;;5052542;28;20021;-66
2021/01/09 08:25:12;;;;;;;11.63;7.43;;;1.90;75.90;;;;;;5051058;28;20111;-67
2021/01/09 08:27:47;;;;;;;10.37;7.57;;;2.00;75.10;;;;;;5049685;28;20137;-67
2021/01/09 08:30:15;;;;;;;10.87;6.87;;;2.10;74.20;;;;;;5051057;28;20136;-67
2021/01/09 08:32:41;;;;;;;10.47;6.97;;;2.20;73.00;;;;;;5052731;28;20096;-66
2021/01/09 08:35:08;;;;;;;12.27;8.07;;;2.20;72.80;;;;;;5052798;28;20025;-67
2021/01/09 08:37:34;;;;;;;10.07;7.00;;;2.30;72.40;;;;;;5052867;28;20033;-66
2021/01/09 08:40:18;;;;;;;9.97;7.73;;;2.40;72.30;;;;;;5052680;28;20017;-67
2021/01/09 08:42:52;;;;;;;12.02;7.93;;;2.50;72.00;;;;;;5052536;28;20417;-66
2021/01/09 08:45:18;;;;;;;12.03;8.10;;;2.60;72.00;;;;;;5052652;28;20029;-66
2021/01/09 08:47:45;;;;;;;12.03;7.77;;;2.70;71.90;;;;;;5052690;28;20029;-67
2021/01/09 08:50:14;;;;;;;10.97;7.20;;;2.70;72.00;;;;;;5052362;28;20037;-66
2021/01/09 08:52:43;;;;;;;11.23;7.37;;;2.80;71.70;;;;;;5052523;28;20033;-66
2021/01/09 08:55:11;;;;;;;10.10;7.27;;;2.90;71.50;;;;;;5052800;28;20470;-67
2021/01/09 08:57:37;;;;;;;9.63;7.27;;;3.00;71.40;;;;;;5052995;28;20114;-66
2021/01/09 09:00:04;;;;;;;11.07;7.90;;;3.00;71.00;;;;;;5056536;28;20071;-67
2021/01/09 09:02:33;;;;;;;9.43;7.10;;;3.10;71.00;;;;;;5056357;28;20543;-66
2021/01/09 09:05:02;;;;;;;10.93;7.33;;;3.10;69.60;;;;;;5056483;28;20033;-66
2021/01/09 09:07:32;;;;;;;11.83;8.37;;;3.20;69.50;;;;;;5056093;28;20024;-66
2021/01/09 09:10:00;;;;;;;9.07;6.87;;;3.30;69.20;;;;;;5056173;28;20108;-67
2021/01/09 09:12:26;;;;;;;8.37;6.30;;;3.30;69.00;;;;;;5056335;28;20021;-66
2021/01/09 09:14:59;;;;;;;6.83;5.23;;;3.40;68.90;;;;;;5056445;28;20052;-66
2021/01/09 09:17:26;;;;;;;8.43;5.57;;;3.40;64.40;;;;;;5055583;28;20070;-66
2021/01/09 09:19:52;;;;;;;7.90;5.00;;;3.40;64.20;;;;;;5054475;28;20029;-67
2021/01/09 09:22:28;;;;;;;7.90;4.50;;;3.40;66.10;;;;;;5054125;28;20462;-66
2021/01/09 09:24:54;;;;;;;5.90;4.50;;;3.50;66.20;;;;;;5054261;28;20086;-66
2021/01/09 09:27:23;;;;;;;5.83;3.90;;;3.50;66.20;;;;;;5055746;28;20028;-66
2021/01/09 09:29:49;;;;;;;8.00;4.23;;;3.50;65.70;;;;;;5056318;28;20068;-66
2021/01/09 09:32:28;;;;;;;5.87;4.00;;;3.60;65.60;;;;;;5056277;28;20021;-66
2021/01/09 09:34:54;;;;;;;7.30;4.23;;;3.60;64.70;;;;;;5056133;28;20037;-66
2021/01/09 09:37:20;;;;;;;5.93;4.30;;;3.60;64.80;;;;;;5056179;28;20029;-66
2021/01/09 09:39:46;;;;;;;7.00;4.50;;;3.70;65.50;;;;;;5056133;28;20029;-66
2021/01/09 09:42:12;;;;;;;6.33;4.53;;;3.70;65.20;;;;;;5056065;28;20427;-66
2021/01/09 09:44:42;;;;;;;6.73;4.13;;;3.80;65.20;;;;;;5055885;28;20052;-66
2021/01/09 09:47:10;;;;;;;5.30;4.20;;;3.90;64.70;;;;;;5055970;28;20052;-67
2021/01/09 09:49:38;;;;;;;5.10;3.47;;;3.90;63.70;;;;;;5055788;28;20040;-66
2021/01/09 09:52:24;;;;;;;5.27;3.87;;;4.00;64.50;;;;;;5055897;28;20025;-66
2021/01/09 09:55:07;;;;;;;5.23;3.60;;;4.10;63.10;;;;;;5055338;28;20393;-67
2021/01/09 09:57:32;;;;;;;6.15;4.00;;;4.20;61.30;;;;;;5055805;28;20029;-67
2021/01/09 10:00:12;;;;;;;5.93;3.90;;;4.20;61.30;;;;;;5055632;28;20440;-66
2021/01/09 10:02:55;;;;;;;5.17;3.23;;;4.30;61.60;;;;;;5055687;28;20033;-66
2021/01/09 10:05:22;;;;;;;5.35;3.42;;;4.40;61.20;;;;;;5055513;28;20048;-67
2021/01/09 10:07:48;;;;;;;5.37;3.47;;;4.50;60.20;;;;;;5055499;28;20096;-66
2021/01/09 10:10:18;;;;;;;7.40;4.13;;;4.50;60.00;;;;;;5054897;28;20171;-66
2021/01/09 10:12:57;;;;;;;4.63;3.40;;;4.60;60.30;;;;;;5053295;28;20028;-66
2021/01/09 10:15:24;;;;;;;4.40;3.27;;;4.60;60.60;;;;;;5052473;28;20068;-66
2021/01/09 10:17:53;;;;;;;5.30;2.93;;;4.70;60.20;;;;;;5053468;28;20075;-66
2021/01/09 10:20:19;;;;;;;4.27;2.90;;;;;;;;;;5055250;28;20017;-66
2021/01/09 10:22:45;;;;;;;4.37;3.03;;;;;;;;;;5055217;28;20083;-66
2021/01/09 10:25:11;;;;;;;4.13;2.77;;;;;;;;;;5055388;28;20025;-66
2021/01/09 10:27:37;;;;;;;3.80;2.83;;;;;;;;;;5055173;28;20021;-66
2021/01/09 10:30:04;;;;;;;4.07;2.87;;;;;;;;;;5055186;28;20041;-66
2021/01/09 10:32:30;;;;;;;4.87;3.10;;;;;;;;;;5053704;28;20125;-67
2021/01/09 10:34:56;;;;;;;4.57;3.20;;;;;;;;;;5055154;28;20040;-66
2021/01/09 10:37:22;;;;;;;5.63;4.10;;;;;;;;;;5053131;28;20033;-67
2021/01/09 10:39:48;;;;;;;6.07;3.93;;;;;;;;;;5052100;28;20033;-67
2021/01/09 10:42:14;;;;;;;4.93;3.50;;;;;;;;;;5052006;28;20421;-66
2021/01/09 10:44:41;;;;;;;5.90;3.50;;;;;;;;;;5054022;28;20037;-66
2021/01/09 10:47:07;;;;;;;7.30;3.53;;;;;;;;;;5054606;28;20486;-66
2021/01/09 10:49:33;;;;;;;7.57;3.50;;;;;;;;;;5054672;28;20028;-66
2021/01/09 10:51:59;;;;;;;5.77;4.07;;;;;;;;;;5054361;28;20460;-66
2021/01/09 10:54:25;;;;;;;5.87;3.60;;;;;;;;;;5054518;28;20033;-67
2021/01/09 10:56:51;;;;;;;4.77;3.53;;;;;;;;;;5054258;28;20060;-66
2021/01/09 10:59:17;;;;;;;6.57;4.00;;;;;;;;;;5054280;28;20035;-67
2021/01/09 11:01:44;;;;;;;4.73;3.33;;;;;;;;;;5054430;28;20064;-67
2021/01/09 11:04:10;;;;;;;3.40;2.63;;;;;;;;;;5054114;28;20025;-66
2021/01/09 11:06:36;;;;;;;3.53;2.43;;;;;;;;;;5053604;28;20052;-66
2021/01/09 11:09:02;;;;;;;4.47;3.00;;;;;;;;;;5054275;28;20037;-67
2021/01/09 11:11:28;;;;;;;4.13;2.67;;;;;;;;;;5054424;28;20052;-67
2021/01/09 11:13:54;;;;;;;4.13;2.50;;;;;;;;;;5054093;28;20035;-66
2021/01/09 11:16:20;;;;;;;2.97;2.37;;;;;;;;;;5053710;28;20029;-66
2021/01/09 11:18:47;;;;;;;3.73;2.93;;;;;;;;;;5053802;28;20049;-67
2021/01/09 11:21:13;;;;;;;4.00;2.40;;;;;;;;;;5053307;28;20029;-67
2021/01/09 11:23:41;;;;;;;3.57;2.40;;;;;;;;;;5053746;28;20021;-67
2021/01/09 11:26:07;;;;;;;3.47;2.20;;;;;;;;;;5053756;28;20056;-67
2021/01/09 11:28:33;;;;;;;3.53;2.40;;;;;;;;;;5053959;28;20033;-67
2021/01/09 11:30:59;;;;;;;3.47;2.40;;;;;;;;;;5053601;28;20036;-67
2021/01/09 11:33:25;;;;;;;3.20;2.03;;;;;;;;;;5053951;28;20025;-66
2021/01/09 11:35:51;;;;;;;3.03;2.10;;;;;;;;;;5053646;28;20029;-66
2021/01/09 11:38:19;;;;;;;2.80;2.00;;;;;;;;;;5053247;28;20075;-67
2021/01/09 11:40:45;;;;;;;3.80;2.30;;;;;;;;;;5053502;28;20120;-67
2021/01/09 11:43:11;;;;;;;2.73;2.13;;;;;;;;;;5053430;28;20032;-67
2021/01/09 11:45:37;;;;;;;2.87;2.00;;;;;;;;;;5053359;28;20112;-66
2021/01/09 11:48:05;;;;;;;2.77;2.03;;;;;;;;;;5053250;28;20025;-66
2021/01/09 11:50:31;;;;;;;3.10;2.30;;;;;;;;;;5053108;28;20041;-67
2021/01/09 11:52:57;;;;;;;3.03;2.13;;;;;;;;;;5051816;28;20103;-67
2021/01/09 11:55:23;;;;;;;3.30;2.27;;;;;;;;;;5051758;28;20060;-66
2021/01/09 11:57:49;;;;;;;6.43;2.10;;;;;;;;;;5052020;28;20025;-67
2021/01/09 12:00:15;;;;;;;2.83;2.23;;;;;;;;;;5051643;28;20100;-67
2021/01/09 12:02:41;;;;;;;3.30;2.40;;;;;;;;;;5051911;28;20025;-66
2021/01/09 12:05:08;;;;;;;4.10;2.20;;;;;;;;;;5053114;28;20067;-67
2021/01/09 12:07:34;;;;;;;5.40;3.17;;;;;;;;;;5051882;28;20029;-67
2021/01/09 12:10:00;;;;;;;3.67;2.60;;;;;;;;;;5050107;28;20041;-67
2021/01/09 12:12:26;;;;;;;5.37;2.50;;;;;;;;;;5050007;28;20051;-68
2021/01/09 12:14:52;;;;;;;4.10;2.60;;;;;;;;;;5051300;28;20028;-67
2021/01/09 12:17:18;;;;;;;3.57;2.53;;;;;;;;;;5052495;28;20025;-66
2021/01/09 12:19:44;;;;;;;4.27;2.90;;;;;;;;;;5052772;28;20060;-66
2021/01/09 12:22:10;;;;;;;3.70;2.50;;;;;;;;;;5052991;28;20390;-67
2021/01/09 12:24:36;;;;;;;3.33;2.50;;;;;;;;;;5052675;28;20037;-67
2021/01/09 12:27:03;;;;;;;3.90;2.70;;;;;;;;;;5052949;28;20017;-67
2021/01/09 12:29:29;;;;;;;4.30;3.07;;;;;;;;;;5052446;28;20124;-67
2021/01/09 12:31:55;;;;;;;4.03;2.90;;;;;;;;;;5052524;28;20359;-67
2021/01/09 12:34:21;;;;;;;4.03;2.77;;;;;;;;;;5058650;28;20488;-67
2021/01/09 12:36:51;;;;;;;3.83;2.90;;;;;;;;;;5059348;28;20100;-66
2021/01/09 12:39:17;;;;;;;3.60;2.90;;;;;;;;;;5059345;28;20087;-66
2021/01/09 12:41:43;;;;;;;4.53;3.00;;;;;;;;;;5059556;28;20059;-66
2021/01/09 12:44:09;;;;;;;3.97;2.90;;;;;;;;;;5059502;28;20029;-67
2021/01/09 12:46:37;;;;;;;4.00;3.00;;;;;;;;;;5058905;28;20028;-67
2021/01/09 12:49:03;;;;;;;4.73;3.30;;;;;;;;;;5059041;28;20525;-66
2021/01/09 12:51:29;;;;;;;4.83;3.17;;;;;;;;;;5059354;28;20063;-66
2021/01/09 12:53:55;;;;;;;4.90;3.17;;;;;;;;;;5059292;28;20036;-67
2021/01/09 12:56:21;;;;;;;7.30;3.60;;;;;;;;;;5057711;28;20079;-67
2021/01/09 12:58:47;;;;;;;6.93;3.67;;;;;;;;;;5050933;28;20025;-67
2021/01/09 13:01:13;;;;;;;5.50;3.53;;;;;;;;;;5052983;28;20398;-66
2021/01/09 13:03:39;;;;;;;6.40;3.77;;;;;;;;;;5036588;28;20060;-67
2021/01/09 13:06:05;;;;;;;5.27;3.40;;;;;;;;;;5037017;28;20049;-67
2021/01/09 13:08:33;;;;;;;5.10;3.50;;;;;;;;;;5038817;28;20061;-66
2021/01/09 13:10:59;;;;;;;4.63;3.53;;;;;;;;;;5039098;28;20068;-67
2021/01/09 13:13:25;;;;;;;5.37;3.60;;;;;;;;;;5039020;28;20478;-66
2021/01/09 13:15:51;;;;;;;6.00;3.90;;;;;;;;;;5039106;28;20028;-66
2021/01/09 13:18:17;;;;;;;5.77;4.20;;;;;;;;;;5038818;28;20557;-66